Time;durP1;ratioP1;P1;durP2;ratioP2;P2;SDS_P1;SDS_P2;PMS_P1;PMS_P2;Temp;Humidity;BMP_temperature;BMP_pressure;BME280_temperature;BME280_humidity;BME280_pressure;Samples;Min_cycle;Max_cycle;Signal;HPM_P1;HPM_P2
2022/12/17 13:07:26;;;;;;;3.73;2.83;;;17.00;29.60;;;;;;4131464;28;21060;-68
2022/12/17 13:09:27;;;;;;;3.10;2.40;;;17.90;29.00;;;;;;4132222;28;20258;-68
2022/12/17 13:11:36;;;;;;;3.00;2.70;;;18.60;28.40;;;;;;4132434;28;20194;-68
2022/12/17 13:13:54;;;;;;;3.27;2.60;;;19.80;27.00;;;;;;4100664;28;20667;-68
2022/12/17 13:16:14;;;;;;;4.47;3.30;;;19.70;26.40;;;;;;4136039;28;20175;-68
2022/12/17 13:18:40;;;;;;;3.43;3.10;;;19.00;26.40;;;;;;4119182;28;20218;-68
2022/12/17 13:20:41;;;;;;;4.17;3.50;;;18.40;26.80;;;;;;4121492;28;20210;-68
2022/12/17 13:23:10;;;;;;;3.27;2.87;;;18.10;26.50;;;;;;4121000;28;20635;-68
2022/12/17 13:25:22;;;;;;;3.47;3.17;;;18.60;27.00;;;;;;4138465;28;20174;-68
2022/12/17 13:27:31;;;;;;;3.03;2.73;;;15.30;31.20;;;;;;4118399;28;20213;-68
2022/12/17 13:29:36;;;;;;;3.87;2.77;;;13.70;34.00;;;;;;4136463;28;20260;-67
2022/12/17 13:32:15;;;;;;;4.00;3.23;;;14.00;33.90;;;;;;4119457;28;20174;-68
2022/12/17 13:34:26;;;;;;;5.13;3.00;;;13.00;35.60;;;;;;4105328;28;20215;-67
2022/12/17 13:36:26;;;;;;;4.20;3.33;;;14.10;34.00;;;;;;4103820;28;20304;-67
2022/12/17 13:38:44;;;;;;;4.10;3.10;;;13.20;36.00;;;;;;4135987;28;20229;-67
2022/12/17 13:41:03;;;;;;;5.37;3.40;;;12.80;35.90;;;;;;4118775;28;20301;-67
2022/12/17 13:43:04;;;;;;;3.97;2.97;;;13.70;34.30;;;;;;4118437;28;20682;-68
2022/12/17 13:45:05;;;;;;;3.40;3.00;;;14.20;33.20;;;;;;4135995;28;20190;-68
2022/12/17 13:47:23;;;;;;;4.57;3.20;;;15.20;31.20;;;;;;4118551;28;20211;-68
2022/12/17 13:49:27;;;;;;;3.67;3.17;;;15.00;31.00;;;;;;4119080;28;20179;-68
2022/12/17 13:51:32;;;;;;;4.90;3.00;;;14.80;32.00;;;;;;4137783;28;20189;-67
2022/12/17 13:53:33;;;;;;;4.63;3.00;;;12.70;35.90;;;;;;4136351;28;20301;-67
2022/12/17 13:55:34;;;;;;;3.70;3.33;;;12.40;37.50;;;;;;4137685;28;20206;-67
2022/12/17 13:57:36;;;;;;;4.00;3.13;;;13.90;34.70;;;;;;4136968;28;20210;-68
2022/12/17 13:59:37;;;;;;;4.43;3.47;;;15.10;32.30;;;;;;4118527;28;20195;-67
2022/12/17 14:01:50;;;;;;;5.23;3.53;;;14.20;32.10;;;;;;4135620;28;20221;-67
2022/12/17 14:03:58;;;;;;;4.07;3.00;;;13.60;33.60;;;;;;4133324;28;20277;-67
2022/12/17 14:05:59;;;;;;;3.97;3.47;;;13.30;34.20;;;;;;4113886;28;20222;-69
2022/12/17 14:08:02;;;;;;;4.40;2.80;;;12.10;36.10;;;;;;4130463;28;20214;-68
2022/12/17 14:10:11;;;;;;;3.93;3.50;;;11.10;37.90;;;;;;4113648;28;20227;-68
2022/12/17 14:12:23;;;;;;;4.30;3.47;;;10.10;39.70;;;;;;4113435;28;20267;-68
2022/12/17 14:14:31;;;;;;;4.43;3.30;;;9.20;41.10;;;;;;4114597;28;20739;-68
2022/12/17 14:16:32;;;;;;;4.90;3.47;;;9.20;41.80;;;;;;4112466;28;20189;-67
2022/12/17 14:18:33;;;;;;;4.93;3.37;;;9.00;42.50;;;;;;4130558;28;20222;-67
2022/12/17 14:20:35;;;;;;;3.97;3.47;;;9.50;42.60;;;;;;4101242;28;20222;-67
2022/12/17 14:22:49;;;;;;;5.43;3.80;;;8.60;43.90;;;;;;4097196;29;20235;-67
2022/12/17 14:24:50;;;;;;;4.17;3.37;;;7.20;47.80;;;;;;4097347;29;20270;-67
2022/12/17 14:26:57;;;;;;;7.17;4.10;;;7.90;48.10;;;;;;4096400;29;20256;-67
2022/12/17 14:28:58;;;;;;;5.10;3.90;;;7.90;47.30;;;;;;4096693;28;20182;-67
2022/12/17 14:31:14;;;;;;;4.70;3.73;;;8.20;47.00;;;;;;4097106;29;20274;-68
2022/12/17 14:33:31;;;;;;;5.67;3.73;;;9.90;43.40;;;;;;4114068;28;20191;-67
2022/12/17 14:35:38;;;;;;;4.57;3.73;;;10.10;42.30;;;;;;4097005;29;20258;-67
2022/12/17 14:37:39;;;;;;;4.30;3.83;;;10.40;41.30;;;;;;4096241;29;20208;-68
2022/12/17 14:39:44;;;;;;;5.17;3.90;;;11.20;39.70;;;;;;4114344;28;20186;-67
2022/12/17 14:44:05;;;;;;;5.17;3.80;;;11.20;37.80;;;;;;4114114;28;20267;-68
2022/12/17 14:46:20;;;;;;;5.83;4.43;;;10.30;39.40;;;;;;4096894;29;20188;-68
2022/12/17 14:48:59;;;;;;;6.13;4.50;;;9.40;40.70;;;;;;4098358;28;20659;-67
2022/12/17 14:50:55;;;;;;;6.60;4.43;;;7.40;45.30;;;;;;4099897;28;20266;-67
2022/12/17 14:52:59;;;;;;;5.90;4.40;;;6.30;48.70;;;;;;4081006;29;20546;-67
2022/12/17 14:55:01;;;;;;;8.07;4.97;;;5.60;51.20;;;;;;4096807;29;20423;-68
2022/12/17 14:57:05;;;;;;;9.00;4.87;;;4.50;55.10;;;;;;4096619;29;20455;-67
2022/12/17 14:59:25;;;;;;;7.00;4.70;;;3.90;57.30;;;;;;4096818;29;20822;-67
2022/12/17 15:01:25;;;;;;;6.97;4.37;;;3.20;59.70;;;;;;4091636;29;20762;-67
2022/12/17 15:03:31;;;;;;;7.20;4.40;;;2.70;61.30;;;;;;4112720;28;20476;-67
2022/12/17 15:05:33;;;;;;;6.43;4.40;;;2.10;65.30;;;;;;4112781;28;20176;-67
2022/12/17 15:07:34;;;;;;;6.37;4.60;;;1.60;67.40;;;;;;4111895;28;20549;-67
2022/12/17 15:09:38;;;;;;;7.67;4.90;;;1.10;69.30;;;;;;4112607;28;20415;-69
2022/12/17 15:11:39;;;;;;;7.33;4.57;;;0.70;72.10;;;;;;4129788;28;20186;-69
2022/12/17 15:13:40;;;;;;;7.67;4.80;;;0.30;74.40;;;;;;4112432;28;20474;-69
2022/12/17 15:15:40;;;;;;;8.77;5.00;;;-0.10;76.80;;;;;;4112461;28;20187;-69
2022/12/17 15:17:41;;;;;;;8.03;5.17;;;-0.40;79.30;;;;;;4129109;28;20264;-69
2022/12/17 15:19:42;;;;;;;8.53;5.10;;;-0.70;81.50;;;;;;4112344;28;20199;-69
2022/12/17 15:21:43;;;;;;;9.10;4.67;;;-1.00;83.70;;;;;;4112251;28;20305;-69
2022/12/17 15:23:45;;;;;;;8.40;5.27;;;-1.30;86.20;;;;;;4129706;28;20676;-69
2022/12/17 15:25:48;;;;;;;9.43;5.70;;;-1.50;87.80;;;;;;4112359;28;20194;-69
2022/12/17 15:27:49;;;;;;;9.03;5.17;;;-1.80;89.50;;;;;;4111524;28;20512;-69
2022/12/17 15:29:50;;;;;;;9.20;5.63;;;-1.90;91.20;;;;;;4129587;28;20432;-69
2022/12/17 15:31:51;;;;;;;8.80;5.17;;;-2.10;92.00;;;;;;4129459;28;20662;-69
2022/12/17 15:33:51;;;;;;;11.20;6.10;;;-2.30;93.00;;;;;;4112293;28;20209;-69
2022/12/17 15:35:52;;;;;;;9.23;5.47;;;-2.50;93.60;;;;;;4112182;28;20194;-69
2022/12/17 15:37:52;;;;;;;9.57;5.97;;;-2.70;94.10;;;;;;4128920;28;20300;-69
2022/12/17 15:39:55;;;;;;;12.87;6.57;;;-2.90;94.70;;;;;;4129157;28;20718;-69
2022/12/17 15:44:16;;;;;;;14.27;6.13;;;-3.10;96.10;;;;;;4114760;28;20637;-69
2022/12/17 15:46:17;;;;;;;11.90;6.33;;;-3.30;96.30;;;;;;4112053;28;20419;-69
2022/12/17 15:48:20;;;;;;;13.23;6.70;;;-3.40;96.80;;;;;;4128579;28;20290;-69
2022/12/17 15:50:21;;;;;;;12.90;7.03;;;-3.50;96.80;;;;;;4096149;29;20198;-69
2022/12/17 15:52:21;;;;;;;17.13;7.73;;;-3.60;97.20;;;;;;4111990;28;20478;-69
2022/12/17 15:54:24;;;;;;;12.10;7.57;;;-3.70;97.10;;;;;;4095959;29;20228;-69
2022/12/17 15:56:27;;;;;;;17.03;8.27;;;-3.80;97.40;;;;;;4111477;28;20219;-69
2022/12/17 15:58:28;;;;;;;12.97;8.27;;;-4.00;97.80;;;;;;4129597;28;20445;-68
2022/12/17 16:00:29;;;;;;;12.47;7.60;;;-4.00;98.30;;;;;;4111898;28;20884;-69
2022/12/17 16:02:29;;;;;;;15.20;7.90;;;-4.10;98.10;;;;;;4111954;28;20521;-69
2022/12/17 16:04:30;;;;;;;14.93;7.63;;;-4.20;98.50;;;;;;4129170;28;20661;-69
2022/12/17 16:06:32;;;;;;;15.83;9.03;;;-4.30;99.00;;;;;;4095083;29;20563;-68
2022/12/17 16:08:33;;;;;;;16.97;8.93;;;-4.30;99.50;;;;;;4111570;28;20207;-68
2022/12/17 16:10:33;;;;;;;13.73;8.73;;;-4.40;99.90;;;;;;4109954;28;20858;-69
2022/12/17 16:12:34;;;;;;;16.40;8.93;;;-4.50;99.90;;;;;;4095882;29;20728;-69
2022/12/17 16:14:35;;;;;;;13.37;7.43;;;-4.50;99.90;;;;;;4095941;29;20179;-67
2022/12/17 16:16:35;;;;;;;14.27;8.87;;;-4.60;99.80;;;;;;4112329;28;20198;-67
2022/12/17 16:18:37;;;;;;;17.13;8.87;;;-4.70;99.90;;;;;;4096079;29;20191;-68
2022/12/17 16:20:37;;;;;;;13.37;7.50;;;-4.70;99.90;;;;;;4113116;28;20239;-68
2022/12/17 16:22:38;;;;;;;17.77;9.13;;;-4.80;99.90;;;;;;4095792;29;20432;-68
2022/12/17 16:24:39;;;;;;;19.50;9.97;;;-4.80;99.90;;;;;;4113260;28;20183;-68
2022/12/17 16:26:40;;;;;;;18.60;9.83;;;-4.90;99.90;;;;;;4112416;28;20198;-68
2022/12/17 16:28:41;;;;;;;17.03;10.03;;;-5.00;99.90;;;;;;4095868;29;20419;-68
2022/12/17 16:30:41;;;;;;;21.97;11.20;;;-5.10;99.90;;;;;;4112839;28;20186;-68
2022/12/17 16:32:42;;;;;;;18.93;10.93;;;-5.00;99.90;;;;;;4095798;29;20177;-68
2022/12/17 16:34:43;;;;;;;19.57;11.23;;;-5.00;99.90;;;;;;4079948;29;20196;-68
2022/12/17 16:36:44;;;;;;;20.70;11.10;;;-5.10;99.90;;;;;;4095307;29;20274;-68
2022/12/17 16:38:51;;;;;;;21.30;11.33;;;-5.20;99.90;;;;;;4080069;29;20881;-68
2022/12/17 16:41:00;;;;;;;19.07;11.37;;;-5.10;99.90;;;;;;4095930;29;20706;-68
2022/12/17 16:43:01;;;;;;;19.83;11.97;;;-5.20;99.90;;;;;;4096232;29;20451;-68
2022/12/17 16:45:02;;;;;;;21.80;11.23;;;-5.20;99.90;;;;;;4112995;28;20474;-69
2022/12/17 16:47:03;;;;;;;20.10;10.40;;;-5.30;99.90;;;;;;4095428;29;20216;-68
2022/12/17 16:49:16;;;;;;;20.17;11.40;;;-5.30;99.90;;;;;;4112971;28;21364;-68
2022/12/17 16:51:20;;;;;;;17.60;11.07;;;-5.30;99.90;;;;;;4095721;28;20670;-69
2022/12/17 16:53:20;;;;;;;23.27;12.07;;;-5.30;99.90;;;;;;4098223;29;20434;-69
2022/12/17 16:55:21;;;;;;;23.63;11.77;;;-5.30;99.90;;;;;;4098822;29;20423;-69
2022/12/17 16:57:22;;;;;;;17.73;12.07;;;-5.30;99.90;;;;;;4082209;29;20222;-69
2022/12/17 16:59:22;;;;;;;23.53;12.53;;;-5.40;99.90;;;;;;4115783;28;20190;-70
2022/12/17 17:01:27;;;;;;;18.37;10.53;;;-5.40;99.90;;;;;;4115845;28;20769;-69
2022/12/17 17:03:28;;;;;;;21.10;11.67;;;-5.50;99.90;;;;;;4082422;29;20667;-69
2022/12/17 17:05:35;;;;;;;22.37;12.87;;;-5.50;99.90;;;;;;4131196;28;20511;-68
2022/12/17 17:07:35;;;;;;;21.33;10.77;;;-5.60;99.90;;;;;;4129906;28;20285;-69
2022/12/17 17:09:37;;;;;;;22.20;12.63;;;-5.60;99.90;;;;;;4131837;28;20438;-68
2022/12/17 17:11:38;;;;;;;23.57;12.67;;;-5.60;99.90;;;;;;4114281;28;20203;-68
2022/12/17 17:13:39;;;;;;;23.33;12.60;;;-5.70;99.90;;;;;;4130393;28;20488;-68
2022/12/17 17:15:40;;;;;;;25.87;12.77;;;-5.70;99.90;;;;;;4131836;28;20426;-68
2022/12/17 17:17:40;;;;;;;21.97;12.77;;;-5.70;99.90;;;;;;4130964;28;20457;-68
2022/12/17 17:19:41;;;;;;;22.80;12.63;;;-5.70;99.90;;;;;;4131645;28;20261;-68
2022/12/17 17:21:50;;;;;;;24.30;12.33;;;-5.60;99.90;;;;;;4131632;28;20285;-68
2022/12/17 17:23:58;;;;;;;23.30;12.63;;;-5.60;99.90;;;;;;4114381;28;20343;-68
2022/12/17 17:26:00;;;;;;;26.27;12.10;;;-5.60;99.90;;;;;;4114151;28;20449;-68
2022/12/17 17:28:01;;;;;;;20.52;12.13;;;-5.50;99.90;;;;;;4113529;28;20449;-68
2022/12/17 17:30:02;;;;;;;23.93;12.13;;;-5.50;99.90;;;;;;4114116;28;20195;-68
2022/12/17 17:32:03;;;;;;;47.40;22.67;;;-5.60;99.90;;;;;;4131539;28;20631;-68
2022/12/17 17:34:09;;;;;;;26.93;15.83;;;-5.60;99.90;;;;;;4098126;29;20451;-68
2022/12/17 17:36:19;;;;;;;34.78;17.85;;;-5.70;99.90;;;;;;4114427;28;20175;-69
2022/12/17 17:38:20;;;;;;;27.17;14.07;;;-5.80;99.60;;;;;;4114075;28;20218;-69
2022/12/17 17:40:21;;;;;;;21.90;11.80;;;-5.80;99.30;;;;;;4114084;28;20422;-69
2022/12/17 17:42:21;;;;;;;22.90;11.93;;;-5.80;99.80;;;;;;4131443;28;20604;-69
2022/12/17 17:44:22;;;;;;;21.60;12.03;;;-6.00;99.90;;;;;;4114244;28;20815;-69
2022/12/17 17:46:24;;;;;;;26.63;14.27;;;-6.00;99.90;;;;;;4113658;28;20197;-68
2022/12/17 17:48:25;;;;;;;29.17;12.23;;;-6.10;99.90;;;;;;4130153;28;20203;-68
2022/12/17 17:50:26;;;;;;;21.10;12.80;;;-6.00;99.90;;;;;;4114110;28;20870;-69
2022/12/17 17:52:26;;;;;;;27.33;15.03;;;-6.10;99.90;;;;;;4132016;28;20579;-68
2022/12/17 17:54:27;;;;;;;30.60;19.00;;;-6.30;99.80;;;;;;4131883;28;20186;-69
2022/12/17 17:56:31;;;;;;;32.20;18.33;;;-6.40;99.50;;;;;;4129815;28;20174;-69
2022/12/17 17:58:33;;;;;;;32.53;18.95;;;-6.50;99.30;;;;;;4114114;28;20179;-68
2022/12/17 18:00:33;;;;;;;35.45;19.27;;;-6.60;99.00;;;;;;4113936;28;20214;-68
2022/12/17 18:02:34;;;;;;;33.63;20.17;;;-6.70;99.10;;;;;;4131563;28;20559;-69
2022/12/17 18:04:35;;;;;;;31.80;19.57;;;-6.70;99.40;;;;;;4130528;28;20554;-69
2022/12/17 18:06:38;;;;;;;40.10;19.53;;;-6.80;99.80;;;;;;4113294;28;20547;-68
2022/12/17 18:08:41;;;;;;;36.13;18.95;;;-6.90;99.90;;;;;;4115126;28;20277;-68
2022/12/17 18:10:42;;;;;;;34.92;17.30;;;-7.00;99.90;;;;;;4116364;28;20234;-68
2022/12/17 18:15:02;;;;;;;35.50;18.70;;;-6.90;99.90;;;;;;4118541;28;20409;-68
2022/12/17 18:17:03;;;;;;;32.83;18.13;;;-7.10;99.70;;;;;;4114225;28;20933;-68
2022/12/17 18:19:24;;;;;;;31.83;18.23;;;-7.00;99.90;;;;;;4101133;28;20435;-68
2022/12/17 18:21:27;;;;;;;33.47;17.45;;;-7.10;99.90;;;;;;4117053;28;20307;-68
2022/12/17 18:23:27;;;;;;;27.27;15.20;;;-7.10;99.90;;;;;;4099707;29;20634;-68
2022/12/17 18:25:28;;;;;;;29.83;16.53;;;-7.20;99.80;;;;;;4116085;28;20261;-68
2022/12/17 18:27:29;;;;;;;26.70;15.27;;;-7.20;99.90;;;;;;4096622;29;20238;-68
2022/12/17 18:29:31;;;;;;;31.17;14.93;;;-7.30;99.80;;;;;;4114454;28;20237;-68
2022/12/17 18:31:31;;;;;;;31.38;17.10;;;-7.30;99.60;;;;;;4114596;28;20258;-68
2022/12/17 18:33:33;;;;;;;21.63;12.23;;;-7.30;99.90;;;;;;4097314;29;20198;-68
2022/12/17 18:35:33;;;;;;;20.95;11.32;;;-7.20;99.90;;;;;;4081326;29;20191;-68
2022/12/17 18:37:34;;;;;;;24.00;13.80;;;-7.30;99.80;;;;;;4080801;29;20216;-68
2022/12/17 18:39:35;;;;;;;27.17;14.50;;;-7.40;99.40;;;;;;4097183;29;20228;-69
2022/12/17 18:43:58;;;;;;;30.35;15.48;;;-7.40;99.50;;;;;;4099729;28;20245;-69
2022/12/17 18:46:03;;;;;;;24.73;13.30;;;-7.50;99.60;;;;;;4097014;29;20180;-69
2022/12/17 18:48:04;;;;;;;28.58;13.63;;;-7.50;99.30;;;;;;4113675;28;20242;-68
2022/12/17 18:50:05;;;;;;;25.95;13.02;;;-7.60;99.40;;;;;;4113976;28;20278;-68
2022/12/17 18:52:06;;;;;;;25.40;13.75;;;-7.60;99.60;;;;;;4114096;28;20252;-68
2022/12/17 18:54:12;;;;;;;25.93;15.10;;;-7.70;99.40;;;;;;4114064;28;20179;-68
2022/12/17 18:56:13;;;;;;;24.88;13.75;;;-7.60;99.60;;;;;;4096996;29;20226;-68
2022/12/17 18:58:13;;;;;;;25.07;15.17;;;-7.80;99.20;;;;;;4096691;29;20210;-68
2022/12/17 19:00:14;;;;;;;29.50;16.63;;;-7.70;99.40;;;;;;4114271;28;20187;-68
2022/12/17 19:02:15;;;;;;;37.23;18.53;;;-7.70;99.30;;;;;;4113843;28;20201;-68
2022/12/17 19:04:19;;;;;;;26.77;15.23;;;-7.80;99.20;;;;;;4114035;28;20673;-68
2022/12/17 19:06:22;;;;;;;33.10;18.95;;;-7.80;99.20;;;;;;4132558;28;20185;-69
2022/12/17 19:08:23;;;;;;;33.78;17.10;;;-7.90;99.30;;;;;;4112514;28;20225;-70
2022/12/17 19:10:23;;;;;;;24.63;13.67;;;-7.90;99.60;;;;;;4130163;28;20935;-70
2022/12/17 19:12:24;;;;;;;18.30;10.53;;;-7.80;99.90;;;;;;4112975;28;20197;-70
2022/12/17 19:14:25;;;;;;;22.63;12.17;;;-7.80;99.90;;;;;;4116323;28;20188;-70
2022/12/17 19:16:28;;;;;;;26.63;13.40;;;-7.70;99.90;;;;;;4092278;28;20219;-66
2022/12/17 19:18:28;;;;;;;21.15;13.02;;;-7.80;99.90;;;;;;4108584;28;20302;-67
2022/12/17 19:20:29;;;;;;;20.03;11.30;;;-7.70;99.80;;;;;;4130923;28;20596;-70
2022/12/17 19:22:30;;;;;;;19.20;11.27;;;-7.70;99.90;;;;;;4119927;28;20727;-68
2022/12/17 19:24:30;;;;;;;25.57;12.23;;;-7.60;99.90;;;;;;4134263;28;20750;-66
2022/12/17 19:26:32;;;;;;;22.77;11.63;;;-7.60;99.50;;;;;;4112531;28;20559;-67
2022/12/17 19:28:33;;;;;;;26.73;13.00;;;-7.70;98.80;;;;;;4134378;28;20188;-68
2022/12/17 19:30:34;;;;;;;26.55;16.45;;;-7.90;98.80;;;;;;4144961;28;20197;-68
2022/12/17 19:32:35;;;;;;;28.90;15.67;;;-7.90;98.10;;;;;;4134679;28;20258;-68
2022/12/17 19:34:35;;;;;;;31.30;16.13;;;-7.90;98.30;;;;;;4129150;28;20194;-69
2022/12/17 19:36:38;;;;;;;24.77;12.63;;;-7.90;98.80;;;;;;4134407;28;20251;-67
2022/12/17 19:38:38;;;;;;;18.40;11.10;;;-7.80;99.30;;;;;;4129112;28;20200;-68
2022/12/17 19:40:39;;;;;;;19.67;11.47;;;-7.90;99.40;;;;;;4128322;28;20600;-69
2022/12/17 19:42:40;;;;;;;33.40;18.00;;;-7.80;99.90;;;;;;4140392;28;20201;-68
2022/12/17 19:44:40;;;;;;;31.90;15.60;;;-7.80;99.90;;;;;;4128440;28;20189;-67
2022/12/17 19:46:42;;;;;;;29.60;15.20;;;-7.70;99.90;;;;;;4139845;28;20184;-69
2022/12/17 19:48:44;;;;;;;25.70;14.07;;;-7.80;99.90;;;;;;4145130;28;20733;-69
2022/12/17 19:50:55;;;;;;;24.33;14.43;;;-7.80;99.90;;;;;;4128585;28;20632;-68
2022/12/17 19:52:56;;;;;;;25.63;13.93;;;-7.90;99.90;;;;;;4137527;28;20730;-69
2022/12/17 19:54:56;;;;;;;21.50;11.60;;;-7.80;99.90;;;;;;4138529;28;20276;-69
2022/12/17 19:56:57;;;;;;;17.93;9.03;;;-7.80;99.90;;;;;;4127994;28;20221;-69
2022/12/17 19:59:01;;;;;;;17.13;8.60;;;-7.90;99.90;;;;;;4128111;28;20189;-64
2022/12/17 20:01:16;;;;;;;17.70;9.00;;;-7.80;99.90;;;;;;4137818;28;20209;-69
2022/12/17 20:03:16;;;;;;;22.95;11.15;;;-7.90;99.90;;;;;;4128251;28;20225;-67
2022/12/17 20:05:17;;;;;;;20.53;11.77;;;-7.90;99.90;;;;;;4144589;28;20190;-66
2022/12/17 20:07:18;;;;;;;21.80;10.77;;;-8.00;99.90;;;;;;4134577;28;20214;-68
2022/12/17 20:09:18;;;;;;;22.67;11.97;;;-8.00;99.20;;;;;;4128010;28;20209;-67
2022/12/17 20:11:31;;;;;;;21.30;11.33;;;-8.10;99.00;;;;;;4133015;28;20950;-66
2022/12/17 20:13:32;;;;;;;27.83;11.77;;;-8.20;98.90;;;;;;4122040;28;20187;-66
2022/12/17 20:15:33;;;;;;;19.60;11.30;;;-8.20;99.30;;;;;;4132873;28;20293;-66
2022/12/17 20:17:33;;;;;;;23.00;10.07;;;-8.20;99.90;;;;;;4127196;28;20217;-66
2022/12/17 20:19:34;;;;;;;16.53;9.23;;;-8.30;99.90;;;;;;4132672;28;20666;-68
2022/12/17 20:21:35;;;;;;;12.37;7.07;;;-8.30;99.90;;;;;;4142153;28;20232;-65
2022/12/17 20:23:35;;;;;;;13.23;7.30;;;-8.30;99.90;;;;;;4132536;28;20188;-67
2022/12/17 20:25:36;;;;;;;14.50;8.57;;;-8.40;99.70;;;;;;4128002;28;20275;-68
2022/12/17 20:27:38;;;;;;;24.80;12.23;;;-8.30;99.90;;;;;;4129306;28;20217;-67
2022/12/17 20:29:38;;;;;;;29.30;14.05;;;-8.40;99.90;;;;;;4131105;28;20272;-67
2022/12/17 20:31:41;;;;;;;18.00;9.73;;;-8.30;99.90;;;;;;4131268;28;20199;-67
2022/12/17 20:33:41;;;;;;;22.20;11.00;;;-8.30;99.90;;;;;;4146110;28;20188;-69
2022/12/17 20:35:42;;;;;;;18.53;9.53;;;-8.30;99.90;;;;;;4135047;28;20293;-69
2022/12/17 20:37:43;;;;;;;20.90;9.93;;;-8.30;99.90;;;;;;4145706;28;20575;-69
2022/12/17 20:39:43;;;;;;;41.83;18.20;;;-8.40;99.90;;;;;;4134277;28;20821;-67
2022/12/17 20:41:44;;;;;;;39.53;17.60;;;-8.40;99.90;;;;;;4147257;28;20211;-68
2022/12/17 20:43:45;;;;;;;44.77;18.87;;;-8.40;99.50;;;;;;4133966;28;20181;-68
2022/12/17 20:45:48;;;;;;;36.22;17.08;;;-8.50;99.70;;;;;;4146657;28;20182;-68
2022/12/17 20:47:49;;;;;;;42.90;17.75;;;-8.40;99.90;;;;;;4146242;28;20217;-67
2022/12/17 20:49:49;;;;;;;33.73;15.03;;;-8.50;99.80;;;;;;4146668;28;20189;-69
2022/12/17 20:51:50;;;;;;;29.07;13.60;;;-8.50;99.50;;;;;;4130629;28;20189;-68
2022/12/17 20:53:54;;;;;;;29.90;12.87;;;-8.60;99.20;;;;;;4146888;28;20234;-69
2022/12/17 20:56:16;;;;;;;22.95;11.50;;;-8.60;99.20;;;;;;4146716;28;20200;-68
2022/12/17 20:58:17;;;;;;;24.85;10.98;;;-8.60;99.70;;;;;;4102648;28;20210;-68
2022/12/17 21:00:17;;;;;;;20.37;11.23;;;-8.60;99.80;;;;;;4145676;28;20179;-66
2022/12/17 21:02:18;;;;;;;26.80;13.87;;;-8.70;99.90;;;;;;4134425;28;20227;-69
2022/12/17 21:04:19;;;;;;;23.60;13.20;;;-8.70;99.90;;;;;;4130612;28;20186;-67
2022/12/17 21:06:24;;;;;;;21.40;9.50;;;-8.80;99.70;;;;;;4131921;28;20184;-69
2022/12/17 21:08:24;;;;;;;16.80;8.13;;;-8.90;99.10;;;;;;4134798;28;20215;-69
2022/12/17 21:10:25;;;;;;;17.73;8.73;;;-8.80;98.70;;;;;;4130711;28;20738;-68
2022/12/17 21:13:27;;;;;;;21.53;9.47;;;-8.90;98.60;;;;;;4134908;28;20530;-70
2022/12/17 21:14:46;;;;;;;22.80;8.77;;;-9.00;98.50;;;;;;4129946;28;20185;-69
2022/12/17 21:16:48;;;;;;;15.43;8.07;;;-9.00;98.70;;;;;;4122186;28;20185;-69
2022/12/17 21:18:49;;;;;;;18.52;9.43;;;-8.90;98.90;;;;;;4113886;28;20227;-69
2022/12/17 21:21:04;;;;;;;16.90;8.27;;;-9.00;98.90;;;;;;4138257;28;20583;-69
2022/12/17 21:23:04;;;;;;;28.55;12.10;;;-9.10;99.00;;;;;;4130325;28;20238;-68
2022/12/17 21:25:06;;;;;;;26.73;13.07;;;-9.00;98.90;;;;;;4139480;28;20594;-67
2022/12/17 21:27:07;;;;;;;29.08;14.40;;;-9.00;98.80;;;;;;4137648;28;20212;-67
2022/12/17 21:29:08;;;;;;;26.17;14.37;;;-9.00;99.50;;;;;;4140375;28;20231;-67
2022/12/17 21:31:23;;;;;;;28.13;13.77;;;-9.10;99.80;;;;;;4129576;28;20240;-69
2022/12/17 21:33:25;;;;;;;23.20;11.95;;;-9.10;99.90;;;;;;4129636;28;20210;-68
2022/12/17 21:35:26;;;;;;;22.30;11.30;;;-9.10;99.90;;;;;;4135434;28;20227;-68
2022/12/17 21:37:27;;;;;;;18.23;9.48;;;-9.10;99.90;;;;;;4128786;28;20306;-68
2022/12/17 21:39:27;;;;;;;21.20;8.40;;;-9.10;99.90;;;;;;4128088;28;20927;-68
2022/12/17 21:41:32;;;;;;;11.33;7.17;;;-9.10;99.80;;;;;;4136250;28;20264;-67
2022/12/17 21:43:35;;;;;;;15.18;7.50;;;-9.00;99.90;;;;;;4125939;28;20179;-68
2022/12/17 21:45:39;;;;;;;16.35;7.43;;;-9.00;99.90;;;;;;4113228;28;20171;-66
2022/12/17 21:47:40;;;;;;;18.92;9.48;;;-9.00;99.90;;;;;;4128708;28;20315;-67
2022/12/17 21:49:40;;;;;;;16.93;7.70;;;-9.00;99.90;;;;;;4133548;28;20186;-69
2022/12/17 21:51:41;;;;;;;22.63;8.57;;;-9.00;99.90;;;;;;4129911;28;20183;-68
2022/12/17 21:53:42;;;;;;;25.37;12.53;;;-8.90;99.90;;;;;;4133737;28;20678;-66
2022/12/17 21:55:43;;;;;;;20.77;10.20;;;-8.90;99.90;;;;;;4144754;28;20609;-66
2022/12/17 21:57:43;;;;;;;13.90;7.67;;;-9.00;99.70;;;;;;4112700;28;20237;-66
2022/12/17 21:59:44;;;;;;;12.40;7.80;;;-9.00;99.30;;;;;;4144966;28;20189;-68
2022/12/17 22:01:45;;;;;;;15.33;7.83;;;-9.00;99.10;;;;;;4132784;28;20699;-68
2022/12/17 22:03:47;;;;;;;20.37;9.70;;;-9.00;99.10;;;;;;4144865;28;20185;-68
2022/12/17 22:05:48;;;;;;;17.42;7.95;;;-8.90;99.20;;;;;;4111356;28;20239;-67
2022/12/17 22:07:48;;;;;;;17.83;9.93;;;-9.00;99.50;;;;;;4143293;28;20224;-69
2022/12/17 22:09:49;;;;;;;16.00;8.60;;;-9.00;99.60;;;;;;4132650;28;20184;-67
2022/12/17 22:14:01;;;;;;;14.23;8.63;;;-9.00;99.10;;;;;;4129335;28;20277;-67
2022/12/17 22:14:11;;;;;;;15.60;8.75;;;-9.00;99.00;;;;;;4117097;28;20208;-68
2022/12/17 22:16:12;;;;;;;17.73;9.32;;;-9.10;99.50;;;;;;4129158;28;20176;-69
2022/12/17 22:18:13;;;;;;;14.77;7.25;;;-9.10;99.50;;;;;;4112685;28;20292;-69
2022/12/17 22:20:17;;;;;;;13.80;7.90;;;-9.10;99.30;;;;;;4084943;28;20195;-70
2022/12/17 22:22:17;;;;;;;14.60;7.22;;;-9.10;99.30;;;;;;4144345;28;20209;-71
2022/12/17 22:24:21;;;;;;;14.57;7.97;;;-9.10;99.40;;;;;;4129337;28;20198;-72
2022/12/17 22:26:22;;;;;;;22.00;8.88;;;-9.10;99.20;;;;;;4128731;28;20182;-69
2022/12/17 22:28:22;;;;;;;27.27;10.57;;;-9.10;98.70;;;;;;4112727;28;20209;-70
2022/12/17 22:35:01;;;;;;;25.98;12.40;;;-9.20;97.90;;;;;;4129347;28;20577;-67
2022/12/17 22:37:02;;;;;;;28.80;13.73;;;-9.30;98.00;;;;;;4138101;28;20204;-67
2022/12/17 22:39:07;;;;;;;16.27;9.27;;;-9.20;98.20;;;;;;4138580;28;20234;-70
2022/12/17 22:41:07;;;;;;;19.17;9.77;;;-9.30;97.90;;;;;;4128745;28;20594;-68
2022/12/17 22:43:28;;;;;;;24.83;12.90;;;-9.30;97.50;;;;;;4137365;28;20195;-66
2022/12/17 22:45:30;;;;;;;24.13;11.77;;;-9.30;97.70;;;;;;4142483;28;20184;-69
2022/12/17 22:47:30;;;;;;;22.65;13.00;;;-9.50;97.40;;;;;;4128864;28;20365;-70
2022/12/17 22:49:31;;;;;;;28.40;14.97;;;-9.40;97.80;;;;;;4142261;28;20188;-68
2022/12/17 22:51:31;;;;;;;23.27;11.00;;;-9.50;97.10;;;;;;4129234;28;20189;-68
2022/12/17 22:53:32;;;;;;;25.47;11.73;;;-9.30;99.90;;;;;;4142861;28;20196;-67
2022/12/17 22:55:33;;;;;;;23.10;10.97;;;-9.20;99.90;;;;;;4133647;28;20200;-68
2022/12/17 22:57:34;;;;;;;18.67;9.15;;;-8.90;99.90;;;;;;4144375;28;20625;-69
2022/12/17 22:59:34;;;;;;;19.47;9.43;;;-8.40;99.90;;;;;;4133412;28;20194;-70
2022/12/17 23:01:35;;;;;;;28.10;12.40;;;-8.20;99.90;;;;;;4112627;28;20218;-69
2022/12/17 23:03:36;;;;;;;27.10;10.70;;;-8.00;99.90;;;;;;4128565;28;20959;-69
2022/12/17 23:05:37;;;;;;;22.53;10.20;;;-7.90;99.90;;;;;;4143070;28;20192;-68
2022/12/17 23:07:37;;;;;;;20.80;8.53;;;-7.60;99.90;;;;;;4132118;28;20655;-69
2022/12/17 23:09:38;;;;;;;26.53;11.07;;;-7.40;99.90;;;;;;4143267;28;20177;-67
2022/12/17 23:11:39;;;;;;;14.67;8.73;;;-7.30;99.90;;;;;;4132800;28;20189;-67
2022/12/17 23:13:41;;;;;;;17.00;8.40;;;-7.30;99.90;;;;;;4143321;28;20186;-69
2022/12/17 23:15:42;;;;;;;21.70;9.90;;;-7.20;99.90;;;;;;4128435;28;20194;-69
2022/12/17 23:17:42;;;;;;;20.97;10.97;;;-7.20;99.90;;;;;;4143141;28;20216;-70
2022/12/17 23:19:43;;;;;;;25.50;10.30;;;-7.10;99.90;;;;;;4132047;28;20198;-70
2022/12/17 23:21:44;;;;;;;13.33;6.77;;;-7.20;99.90;;;;;;4141715;28;20217;-69
2022/12/17 23:23:45;;;;;;;19.57;8.43;;;-7.20;99.90;;;;;;4129752;28;20886;-69
2022/12/17 23:25:45;;;;;;;20.33;9.00;;;-7.20;99.90;;;;;;4143814;28;20193;-68
2022/12/17 23:27:46;;;;;;;20.60;10.03;;;-7.10;99.90;;;;;;4127793;28;20934;-66
2022/12/17 23:29:47;;;;;;;18.70;9.60;;;-7.10;99.90;;;;;;4144142;28;20178;-68
2022/12/17 23:31:48;;;;;;;16.90;8.40;;;-7.20;99.90;;;;;;4131183;28;20528;-71
2022/12/17 23:33:48;;;;;;;24.27;11.00;;;-7.20;99.90;;;;;;4128842;28;20218;-70
2022/12/17 23:35:49;;;;;;;15.83;8.23;;;-7.30;99.90;;;;;;4144295;28;20199;-69
2022/12/17 23:37:50;;;;;;;24.47;12.07;;;-7.30;99.90;;;;;;4143963;28;20202;-68
2022/12/17 23:39:50;;;;;;;23.27;10.63;;;-7.30;99.90;;;;;;4128406;28;20615;-69
2022/12/17 23:41:53;;;;;;;20.47;9.33;;;-7.40;99.90;;;;;;4144388;28;20213;-70
2022/12/17 23:43:55;;;;;;;22.60;11.05;;;-7.50;99.90;;;;;;4130546;28;20186;-68
2022/12/17 23:45:55;;;;;;;16.77;7.88;;;-7.60;99.90;;;;;;4128258;28;20584;-69
2022/12/17 23:47:56;;;;;;;20.10;9.40;;;-7.50;99.90;;;;;;4127219;28;20304;-67
2022/12/17 23:49:57;;;;;;;25.53;10.10;;;-7.50;99.90;;;;;;4128144;28;20179;-67
2022/12/17 23:51:57;;;;;;;20.73;10.63;;;-7.50;99.90;;;;;;4128101;28;20226;-68